Stations météo

Publicité
Dunstaffnage, Grande-Bretagne (99006): Température de l'air & dewpoint: 14.06.2018 08:00:00 - 20.06.2018 08:00:00 (BST)Dunstaffnage, Grande-Bretagne (99006): Température de l'air -20cm: 14.06.2018 08:00:00 - 20.06.2018 08:00:00 (BST)Dunstaffnage, Grande-Bretagne (99006): Vitesse du vent & gusts: 14.06.2018 08:00:00 - 20.06.2018 08:00:00 (BST)Dunstaffnage, Grande-Bretagne (99006): Direction du vent: 14.06.2018 08:00:00 - 20.06.2018 08:00:00 (BST)Dunstaffnage, Grande-Bretagne (99006): Quantités de précipitations: 14.06.2018 08:00:00 - 20.06.2018 08:00:00 (BST)
Date & Time tt [°C] td [°C] tt -20cm [°C] ff [km/h] ff [knt] fx [km/h] fx [knt] dd rr [mm]
20.06.2018 08:00:00 - - - - - - - - -
20.06.2018 07:00:00 9,7 9,2 - 8 4 - - NNE 0,0
20.06.2018 06:00:00 9,3 8,9 - 9 5 - - NNE 2,8
20.06.2018 05:00:00 9,1 8,8 - 13 7 - - NNW 3,0
20.06.2018 04:00:00 9,2 8,8 - 9 5 - - N 1,6
20.06.2018 03:00:00 9,3 8,9 - 8 4 - - NNE 1,0
20.06.2018 02:00:00 9,4 8,9 - 8 4 - - E 1,2
20.06.2018 01:00:00 9,1 8,6 - 8 4 - - NNE 0,8
20.06.2018 00:00:00 9,2 8,5 - 8 4 - - N 2,2
19.06.2018 23:00:00 9,3 8,5 - 5 3 - - NNE 1,8
19.06.2018 22:00:00 9,4 8,2 - 4 2 - - ENE 0,8
19.06.2018 21:00:00 9,6 7,9 - 8 4 - - NNE 1,0
19.06.2018 20:00:00 10,2 8,2 - 4 2 - - E 0,8
19.06.2018 19:00:00 10,6 7,0 - 8 4 - - SSE 0,0
19.06.2018 18:00:00 11,4 7,9 - 11 6 - - SSW 0,2
19.06.2018 17:00:00 12,5 7,1 - 15 8 - - SW 0,0
19.06.2018 16:00:00 13,6 7,1 - 15 8 - - SW 0,0
19.06.2018 15:00:00 13,2 7,5 - 18 10 - - SW 0,0
19.06.2018 14:00:00 14,2 9,1 - 18 10 - - SW 0,0
19.06.2018 13:00:00 12,6 7,9 - 18 10 - - WSW 0,0
19.06.2018 12:00:00 13,2 8,8 - 16 9 - - SW 0,0
19.06.2018 11:00:00 12,9 8,8 - 15 8 - - SW 0,0
19.06.2018 10:00:00 12,9 9,0 14,5 18 10 - - WSW 0,0
19.06.2018 09:00:00 12,6 8,4 - 13 7 - - W 0,0
19.06.2018 08:00:00 11,9 8,1 - 21 11 - - W 0,0
19.06.2018 07:00:00 11,3 7,8 - 16 9 - - W 0,0
19.06.2018 06:00:00 9,8 7,2 - 15 8 - - WSW 0,0
19.06.2018 05:00:00 9,7 7,4 - 16 9 - - WSW 0,0
19.06.2018 04:00:00 9,0 7,3 - 16 9 - - W 0,8
19.06.2018 03:00:00 9,5 7,2 - 21 11 - - WSW 0,2
19.06.2018 02:00:00 9,7 7,7 - 21 11 - - WSW 1,6
19.06.2018 01:00:00 10,1 7,8 - 24 13 - - W -
19.06.2018 00:00:00 10,6 7,0 - 22 12 - - WSW 0,0
18.06.2018 23:00:00 10,2 7,1 - 21 11 - - WSW 0,2
18.06.2018 22:00:00 10,4 7,2 - 26 14 - - WSW 0,0
18.06.2018 21:00:00 11,2 7,5 - 18 10 - - WSW 0,0
18.06.2018 20:00:00 11,1 9,7 - 21 11 - - WSW 0,0
18.06.2018 19:00:00 10,7 9,4 - 18 10 - - WSW 0,4
18.06.2018 18:00:00 10,4 8,8 - 24 13 - - W 0,4
18.06.2018 17:00:00 13,3 9,8 - 26 14 50 27 WSW 0,0
18.06.2018 16:00:00 13,2 9,8 - 29 16 48 26 WSW 0,0
18.06.2018 15:00:00 13,1 9,9 - 22 12 - - WSW 0,0
18.06.2018 14:00:00 13,6 10,1 - 22 12 46 25 WSW 0,0
18.06.2018 13:00:00 13,1 8,7 - 24 13 - - WSW 0,0
18.06.2018 12:00:00 14,6 9,6 - 26 14 - - WSW 0,0
18.06.2018 11:00:00 13,3 9,5 - 21 11 - - SW 0,0
18.06.2018 10:00:00 12,4 8,9 14,7 18 10 - - WSW 0,0
18.06.2018 09:00:00 12,5 9,3 - 18 10 - - WSW 0,0
18.06.2018 08:00:00 12,4 9,7 - 15 8 - - SW 0,0
18.06.2018 07:00:00 11,6 9,1 - 13 7 - - WSW 0,0
18.06.2018 06:00:00 11,0 8,3 - 18 10 - - WSW 0,0
18.06.2018 05:00:00 10,6 9,0 - 16 9 - - WSW 0,0
18.06.2018 04:00:00 10,9 9,5 - 15 8 - - WSW 0,0
18.06.2018 03:00:00 10,9 9,7 - 16 9 - - WSW 0,0
18.06.2018 02:00:00 11,2 9,7 - 21 11 - - WSW 0,0
18.06.2018 01:00:00 11,3 10,5 - 16 9 - - WSW 0,0
18.06.2018 00:00:00 11,4 10,7 - 24 13 - - WSW 0,2
17.06.2018 23:00:00 11,7 11,1 - 15 8 - - WSW 0,0
17.06.2018 22:00:00 12,0 11,5 - 18 10 - - WSW 0,0
17.06.2018 21:00:00 12,1 11,6 - 16 9 - - WSW 0,2
17.06.2018 20:00:00 12,4 11,8 - 16 9 - - SW 0,6
17.06.2018 19:00:00 13,0 12,2 - 13 7 - - S 0,4
17.06.2018 18:00:00 12,8 11,4 - 8 4 - - SSE 0,2
17.06.2018 17:00:00 13,1 11,1 - 9 5 - - S 0,0
17.06.2018 16:00:00 13,8 10,5 - 11 6 - - S 0,0
17.06.2018 15:00:00 14,2 9,5 - 11 6 - - SSW 0,0
17.06.2018 14:00:00 13,8 11,6 - 11 6 - - S 0,2
17.06.2018 13:00:00 15,9 11,9 - 11 6 - - WSW 0,0
17.06.2018 12:00:00 14,6 11,7 - 11 6 - - SSW 0,0
17.06.2018 11:00:00 12,7 11,1 - 11 6 - - SW 0,0
17.06.2018 10:00:00 12,3 10,7 14,7 16 9 - - WSW 0,0
17.06.2018 09:00:00 11,9 11,5 - 11 6 - - WSW 0,6
17.06.2018 08:00:00 11,2 10,8 - 5 3 - - SE 0,4
17.06.2018 07:00:00 10,0 9,6 - 4 2 - - SSE 0,4
17.06.2018 06:00:00 9,3 8,8 - 9 5 - - E 0,4
17.06.2018 05:00:00 9,2 8,6 - 5 3 - - SE 0,0
17.06.2018 04:00:00 8,7 8,2 - 2 1 - - ESE 0,0
17.06.2018 03:00:00 7,8 6,9 - 5 3 - - ENE 0,0
17.06.2018 02:00:00 9,0 8,2 - 8 4 - - SSW 0,0
17.06.2018 01:00:00 9,2 8,1 - 5 3 - - SW 0,0
17.06.2018 00:00:00 10,4 9,2 - 8 4 - - WSW 0,0
16.06.2018 23:00:00 10,5 9,0 - 8 4 - - SW 0,0
16.06.2018 22:00:00 10,9 8,8 - 8 4 - - SSW 0,0
16.06.2018 21:00:00 11,8 9,0 - 4 2 - - WSW 0,0
16.06.2018 20:00:00 12,2 9,1 - 13 7 - - WSW 0,0
16.06.2018 19:00:00 11,8 9,1 - 15 8 - - SW 0,0
16.06.2018 18:00:00 12,0 8,8 - 16 9 - - SW 0,2
16.06.2018 17:00:00 13,4 9,5 - 18 10 - - W 0,0
16.06.2018 16:00:00 14,1 8,6 - 16 9 - - SW 0,0
16.06.2018 15:00:00 14,2 10,2 - 18 10 - - SW 0,0
16.06.2018 14:00:00 11,9 10,8 - 15 8 - - SW 0,8
16.06.2018 13:00:00 11,2 10,0 - 18 10 - - WSW 3,8
16.06.2018 12:00:00 13,1 11,6 - 8 4 - - S 0,2
16.06.2018 11:00:00 12,2 10,6 - 8 4 - - S 0,0
16.06.2018 10:00:00 11,8 10,7 15,0 9 5 - - ESE 0,4
16.06.2018 09:00:00 11,5 10,7 - 11 6 - - ESE 1,4
16.06.2018 08:00:00 11,1 10,2 - 9 5 - - ESE 0,8
16.06.2018 07:00:00 11,0 9,7 - 5 3 - - ESE 0,4
16.06.2018 06:00:00 11,1 9,5 - 9 5 - - E 0,0
16.06.2018 05:00:00 10,4 9,2 - 16 9 - - ESE 0,0
16.06.2018 04:00:00 10,1 9,2 - 8 4 - - ESE 0,0
16.06.2018 03:00:00 9,5 8,9 - 11 6 - - ESE 0,0
16.06.2018 02:00:00 9,0 8,1 - 15 8 - - ESE 0,0
16.06.2018 01:00:00 10,0 9,1 - 8 4 - - E 0,0
16.06.2018 00:00:00 10,3 9,2 - 5 3 - - SSE 0,4
15.06.2018 23:00:00 11,1 8,5 - 8 4 - - S 0,0
15.06.2018 22:00:00 11,2 8,7 - 9 5 - - S 0,0
15.06.2018 21:00:00 11,4 8,4 - 11 6 - - SW 0,0
15.06.2018 20:00:00 11,9 8,5 - 16 9 - - WSW 0,0
15.06.2018 19:00:00 12,9 8,5 - 16 9 - - SW 0,0
15.06.2018 18:00:00 12,6 9,3 - 21 11 - - SW 0,0
15.06.2018 17:00:00 15,7 11,8 - 22 12 - - SW 0,0
15.06.2018 16:00:00 14,5 10,2 - 21 11 - - SW 0,0
15.06.2018 15:00:00 14,6 11,9 - 24 13 - - WSW 0,0
15.06.2018 14:00:00 14,4 10,4 - 22 12 - - SW 0,0
15.06.2018 13:00:00 14,1 10,3 - 21 11 - - WSW 0,0
15.06.2018 12:00:00 13,3 10,5 - 21 11 - - SW 0,0
15.06.2018 11:00:00 11,9 10,7 - 21 11 - - WSW 0,4
15.06.2018 10:00:00 11,7 9,5 14,9 16 9 - - WSW 0,0
15.06.2018 09:00:00 12,2 9,8 - 15 8 - - SW 0,2
15.06.2018 08:00:00 10,6 9,4 - 18 10 - - SW 0,0
15.06.2018 07:00:00 10,6 9,6 - 18 10 - - WSW 0,2
15.06.2018 06:00:00 10,1 9,0 - 16 9 - - SW 1,0
15.06.2018 05:00:00 10,3 8,9 - 16 9 - - WSW 0,2
15.06.2018 04:00:00 10,4 9,1 - 21 11 - - WSW 0,0
15.06.2018 03:00:00 10,1 9,1 - 18 10 - - WSW 0,2
15.06.2018 02:00:00 10,1 9,1 - 18 10 - - WSW 0,8
15.06.2018 01:00:00 10,2 9,1 - 18 10 - - SSW 1,4
15.06.2018 00:00:00 10,3 9,0 - 9 5 - - SW 0,2
14.06.2018 23:00:00 10,5 9,2 - 9 5 - - WSW 0,8
14.06.2018 22:00:00 10,6 8,5 - 11 6 - - WSW 0,0
14.06.2018 21:00:00 10,9 8,5 - 18 10 - - WSW 0,0
14.06.2018 20:00:00 11,5 8,0 - 18 10 - - WSW 0,0
14.06.2018 19:00:00 12,1 7,4 - 29 16 - - WSW 0,0
14.06.2018 18:00:00 12,3 6,9 - 34 18 46 25 WSW 0,0
14.06.2018 17:00:00 12,9 7,0 - 31 17 50 27 W 0,0
14.06.2018 16:00:00 12,1 8,4 - 37 20 63 34 W 0,2
14.06.2018 15:00:00 12,4 7,0 - 44 24 61 33 W 0,0
14.06.2018 14:00:00 13,5 9,1 - 42 23 72 39 W 0,0
14.06.2018 13:00:00 11,7 8,5 - 50 27 76 41 W 0,0
14.06.2018 12:00:00 12,3 8,2 - 52 28 83 45 W 0,4
14.06.2018 11:00:00 11,1 9,9 - 57 31 89 48 W 1,2
14.06.2018 10:00:00 11,5 10,4 15,7 44 24 76 41 W 1,8
14.06.2018 09:00:00 11,7 10,7 - 50 27 76 41 W 1,4
14.06.2018 08:00:00 12,0 11,1 - 21 11 50 27 SSW 1,2

tt = Température de l'air
td = dewpoint
tt -20cm = Température de l'air -20cm
ff = Vitesse du vent
fx = gusts
dd = Direction du vent
rr = Quantités de précipitations

stations d'obs. à proximité